Time;durP1;ratioP1;P1;durP2;ratioP2;P2;SDS_P1;SDS_P2;PMS_P1;PMS_P2;Temp;Humidity;BMP_temperature;BMP_pressure;BME280_temperature;BME280_humidity;BME280_pressure;Samples;Min_cycle;Max_cycle;Signal;HPM_P1;HPM_P2
2021/06/23 00:01:53;;;;;;;14.63;10.20;;;13.90;99.90;;;12.49;89.92;101507.78;3529608;39;102237;-41
2021/06/23 00:04:21;;;;;;;14.98;9.75;;;13.90;99.90;;;12.43;89.60;101523.16;3529214;39;102143;-39
2021/06/23 00:06:48;;;;;;;15.93;10.30;;;13.80;99.90;;;12.44;88.96;101527.56;3529799;39;103126;-39
2021/06/23 00:09:16;;;;;;;12.68;9.55;;;13.80;99.90;;;12.38;88.92;101531.13;3529505;39;103511;-40
2021/06/23 00:11:46;;;;;;;16.43;9.90;;;13.80;99.90;;;12.35;89.56;101531.56;3529711;39;104091;-40
2021/06/23 00:14:14;;;;;;;14.75;9.85;;;13.80;99.90;;;12.37;89.22;101534.91;3528940;39;102348;-39
2021/06/23 00:16:43;;;;;;;16.85;9.45;;;13.80;99.90;;;12.37;88.46;101535.78;3529438;39;103423;-41
2021/06/23 00:19:11;;;;;;;15.00;9.60;;;13.80;99.90;;;12.34;88.33;101546.28;3529961;39;102419;-39
2021/06/23 00:21:39;;;;;;;12.98;9.23;;;13.80;99.90;;;12.36;88.37;101544.19;3529331;39;103273;-39
2021/06/23 00:24:06;;;;;;;;;;;13.70;99.90;;;12.40;88.45;101545.44;3529853;39;102385;-39
2021/06/23 00:26:35;;;;;;;13.55;8.95;;;13.80;99.90;;;12.40;90.02;101550.94;3529611;39;102250;-39
2021/06/23 00:29:04;;;;;;;14.57;10.35;;;13.80;99.90;;;12.37;89.60;101546.72;3529184;39;103287;-40
2021/06/23 00:31:33;;;;;;;16.27;10.13;;;13.80;99.90;;;12.37;89.45;101554.06;3528708;39;104031;-41
2021/06/23 00:34:04;;;;;;;15.73;9.63;;;13.80;99.90;;;12.30;87.53;101553.22;3528992;39;102361;-39
2021/06/23 00:36:32;;;;;;;18.65;10.27;;;13.70;99.90;;;12.30;88.84;101561.44;3529126;39;103676;-39
2021/06/23 00:38:59;;;;;;;13.70;9.68;;;13.70;99.90;;;12.31;89.44;101563.13;3529136;39;103445;-40
2021/06/23 00:41:27;;;;;;;;;;;13.70;99.90;;;12.35;89.17;101569.84;3658293;22;103812;-41
2021/06/23 00:43:57;;;;;;;16.17;9.93;;;13.80;99.90;;;12.39;89.32;101565.66;3516727;39;102281;-39
2021/06/23 00:46:25;;;;;;;15.52;10.13;;;13.70;99.90;;;12.40;89.73;101563.78;3530043;39;103196;-40
2021/06/23 00:49:01;;;;;;;13.80;9.68;;;13.80;99.90;;;12.42;89.92;101567.97;3530074;39;102411;-40
2021/06/23 00:51:36;;;;;;;16.35;9.90;;;13.80;99.90;;;12.37;89.87;101570.50;3519231;40;103110;-40
2021/06/23 00:54:24;;;;;;;14.10;9.75;;;13.80;99.90;;;12.37;90.37;101568.63;3519969;40;102443;-40
2021/06/23 00:56:52;;;;;;;15.55;10.40;;;13.80;99.90;;;12.32;90.26;101562.06;3520414;40;102363;-40
2021/06/23 00:59:26;;;;;;;16.08;9.40;;;13.70;99.90;;;12.28;89.03;101563.53;3520451;40;102118;-40
2021/06/23 01:01:55;;;;;;;13.95;9.25;;;13.70;99.90;;;12.28;89.38;101567.09;3519758;40;103164;-41
2021/06/23 01:04:23;;;;;;;13.75;9.00;;;13.70;99.90;;;12.30;89.40;101562.25;3519663;40;102336;-40
2021/06/23 01:06:51;;;;;;;;;;;13.70;99.90;;;12.34;90.05;101565.44;3520666;40;105433;-40
2021/06/23 01:09:21;;;;;;;16.80;9.43;;;13.80;99.90;;;12.38;90.23;101569.44;3520490;40;102417;-40
2021/06/23 01:12:40;;;;;;;15.30;9.68;;;13.70;99.90;;;12.30;89.49;101565.00;3520083;40;103130;-40
2021/06/23 01:15:12;;;;;;;14.77;9.30;;;13.70;99.90;;;12.28;90.19;101561.63;3519896;40;102352;-41
2021/06/23 01:17:39;;;;;;;15.02;9.55;;;13.70;99.90;;;12.25;89.78;101558.47;3520466;40;102228;-40
2021/06/23 01:20:13;;;;;;;11.60;9.07;;;13.70;99.90;;;12.31;89.92;101553.00;3519927;40;102130;-40
2021/06/23 01:22:44;;;;;;;15.48;10.07;;;13.70;99.90;;;12.29;89.42;101554.28;3520253;40;104199;-40
2021/06/23 01:25:15;;;;;;;13.85;9.32;;;13.70;99.90;;;12.31;90.23;101553.00;3519975;40;102443;-41
2021/06/23 01:27:46;;;;;;;15.85;9.20;;;13.70;99.90;;;12.29;89.66;101549.63;3519941;40;103698;-40
2021/06/23 01:30:16;;;;;;;15.05;9.95;;;13.70;99.90;;;12.30;89.16;101558.69;3520400;40;102550;-43
2021/06/23 01:32:48;;;;;;;15.93;9.20;;;13.70;99.90;;;12.30;89.50;101554.06;3519861;40;103841;-42
2021/06/23 01:35:16;;;;;;;16.65;9.60;;;13.70;99.90;;;12.29;89.40;101554.28;3520103;40;102417;-40
2021/06/23 01:37:44;;;;;;;15.70;9.32;;;13.70;99.90;;;12.25;88.79;101553.00;3520139;40;103093;-41
2021/06/23 01:40:13;;;;;;;13.65;9.32;;;13.60;99.90;;;12.27;88.67;101550.91;3510843;40;102610;-40
2021/06/23 01:42:43;;;;;;;14.15;9.10;;;13.70;99.90;;;12.26;88.41;101558.25;3510792;40;102189;-40
2021/06/23 01:45:12;;;;;;;13.70;9.75;;;13.60;99.90;;;12.23;89.21;101555.94;3510674;40;102359;-40
2021/06/23 01:47:39;;;;;;;16.77;9.13;;;13.60;99.90;;;12.21;89.30;101553.44;3519771;40;103187;-40
2021/06/23 01:50:10;;;;;;;15.13;9.38;;;13.60;99.90;;;12.26;88.95;101554.69;3519687;40;102227;-40
2021/06/23 01:52:48;;;;;;;14.75;9.07;;;13.60;99.90;;;12.25;89.68;101556.56;3510636;40;102296;-40
2021/06/23 01:55:28;;;;;;;16.60;9.20;;;13.60;99.90;;;12.22;88.87;101559.72;3510749;40;103527;-40
2021/06/23 01:58:09;;;;;;;19.42;9.20;;;13.60;99.90;;;12.21;89.71;101558.03;3519735;40;103108;-40
2021/06/23 02:01:11;;;;;;;14.88;9.60;;;13.60;99.90;;;12.19;89.08;101560.97;3520306;40;102537;-40
2021/06/23 02:03:54;;;;;;;14.70;9.32;;;13.60;99.90;;;12.16;89.44;101566.03;3510686;40;103197;-40
2021/06/23 02:06:45;;;;;;;16.08;9.43;;;13.60;99.90;;;12.16;90.04;101572.31;3519809;40;102529;-40
2021/06/23 02:09:51;;;;;;;13.32;9.80;;;13.60;99.90;;;12.11;89.88;101563.06;3519832;40;104057;-40
2021/06/23 02:13:22;;;;;;;14.65;9.55;;;13.60;99.90;;;12.07;90.21;101570.81;3511855;40;103196;-40
2021/06/23 02:15:52;;;;;;;15.75;10.05;;;13.50;99.90;;;12.04;90.06;101571.22;3510606;40;102195;-40
2021/06/23 02:18:21;;;;;;;14.55;9.27;;;13.50;99.90;;;12.07;90.19;101565.34;3510738;40;102275;-40
2021/06/23 02:21:11;;;;;;;14.02;9.35;;;13.50;99.90;;;12.11;90.75;101565.78;3516681;39;103055;-43
2021/06/23 02:23:47;;;;;;;15.48;9.63;;;13.50;99.90;;;12.11;90.71;101574.84;3520179;40;102466;-40
2021/06/23 02:26:17;;;;;;;14.73;10.00;;;13.50;99.90;;;12.07;90.40;101579.03;3519229;40;106111;-40
2021/06/23 02:28:45;;;;;;;14.82;8.98;;;13.50;99.90;;;12.15;90.02;101587.03;3510760;40;102552;-40
2021/06/23 02:31:17;;;;;;;14.80;10.10;;;13.60;99.90;;;12.17;90.00;101595.88;3510447;40;103418;-40
2021/06/23 02:33:54;;;;;;;15.43;9.85;;;13.60;99.90;;;12.13;90.40;101583.66;3520198;40;102182;-40
2021/06/23 02:36:33;;;;;;;15.07;10.05;;;13.60;99.90;;;12.09;90.76;101585.13;3510508;40;103300;-41
2021/06/23 02:39:04;;;;;;;17.05;9.30;;;13.50;99.90;;;12.15;91.81;101583.47;3510650;40;103310;-40
2021/06/23 02:41:33;;;;;;;16.60;9.93;;;13.60;99.90;;;12.13;90.80;101578.19;3510324;40;103116;-42
2021/06/23 02:44:05;;;;;;;13.98;9.40;;;13.60;99.90;;;12.09;91.28;101582.41;3510552;40;102433;-40
2021/06/23 02:46:33;;;;;;;15.32;9.82;;;13.50;99.90;;;12.08;91.17;101588.91;3519668;40;104176;-43
2021/06/23 02:49:18;;;;;;;14.73;9.73;;;13.50;99.90;;;12.05;90.85;101597.53;3510597;40;102515;-41
2021/06/23 02:51:48;;;;;;;15.63;9.55;;;13.50;99.90;;;12.05;90.44;101594.81;3510200;40;103543;-40
2021/06/23 02:54:16;;;;;;;14.55;9.57;;;13.50;99.90;;;12.10;91.14;101588.72;3520016;40;102500;-40
2021/06/23 02:57:04;;;;;;;16.73;9.93;;;13.50;99.90;;;12.11;90.87;101590.41;3519817;40;102092;-40
2021/06/23 02:59:35;;;;;;;18.65;10.30;;;13.50;99.90;;;12.05;90.44;101595.63;3519343;40;105517;-41
2021/06/23 03:02:04;;;;;;;15.35;10.65;;;13.50;99.90;;;12.02;90.73;101589.75;3519596;40;103377;-40
2021/06/23 03:04:33;;;;;;;15.35;10.25;;;13.50;99.90;;;12.10;91.27;101591.47;3518810;40;104180;-40
2021/06/23 03:07:14;;;;;;;17.77;9.93;;;13.50;99.90;;;12.03;89.96;101588.69;3519591;40;102086;-40
2021/06/23 03:09:47;;;;;;;19.77;10.40;;;13.50;99.90;;;12.01;90.27;101588.06;3519655;40;103633;-40
2021/06/23 03:12:34;;;;;;;17.45;10.40;;;13.50;99.90;;;12.03;91.04;101589.53;3519561;40;102269;-40
2021/06/23 03:15:37;;;;;;;17.13;9.68;;;13.50;99.90;;;12.07;90.68;101593.56;3513918;40;102350;-40
2021/06/23 03:18:29;;;;;;;15.48;9.40;;;13.50;99.90;;;12.07;90.17;101589.97;3519691;40;103071;-40
2021/06/23 03:20:56;;;;;;;17.70;10.35;;;13.50;99.90;;;12.04;90.42;101595.84;3519616;40;102128;-40
2021/06/23 03:23:24;;;;;;;16.75;10.40;;;13.50;99.90;;;12.03;90.22;101597.72;3510346;40;102330;-40
2021/06/23 03:25:52;;;;;;;15.20;10.23;;;13.40;99.90;;;12.09;90.36;101596.06;3510086;40;105400;-40
2021/06/23 03:28:21;;;;;;;16.00;10.20;;;13.50;99.90;;;12.04;90.25;101591.22;3510331;40;102199;-41
2021/06/23 03:30:54;;;;;;;16.60;10.40;;;13.50;99.90;;;12.01;89.79;101596.25;3510317;40;102347;-40
2021/06/23 03:33:21;;;;;;;;;;;13.50;99.90;;;12.09;90.17;101598.81;3510780;40;103401;-42
2021/06/23 03:36:09;;;;;;;18.17;9.85;;;13.50;99.90;;;12.02;89.85;101597.94;3519562;40;102461;-41
2021/06/23 03:38:40;;;;;;;16.80;9.57;;;13.50;99.90;;;12.09;89.45;101598.81;3510268;40;103763;-40
2021/06/23 03:41:09;;;;;;;16.40;10.35;;;13.50;99.90;;;12.07;89.22;101604.50;3510168;40;102594;-40
2021/06/23 03:43:37;;;;;;;16.60;10.05;;;13.50;99.90;;;12.06;89.47;101600.03;3510256;40;104749;-40
2021/06/23 03:46:05;;;;;;;14.68;9.40;;;13.50;99.90;;;12.03;89.63;101602.38;3519860;40;102414;-40
2021/06/23 03:48:32;;;;;;;17.02;10.45;;;13.50;99.90;;;12.07;90.57;101600.91;3519472;40;104250;-40
2021/06/23 03:51:02;;;;;;;16.60;10.48;;;13.50;99.90;;;12.06;90.10;101610.16;3519608;40;102577;-40
2021/06/23 03:53:30;;;;;;;15.60;10.15;;;13.50;99.90;;;12.04;90.61;101612.25;3519523;40;104063;-40
2021/06/23 03:56:01;;;;;;;15.25;10.18;;;13.50;99.90;;;12.03;90.57;101608.66;3519231;40;102303;-40
2021/06/23 03:58:30;;;;;;;19.08;9.88;;;13.50;99.90;;;12.00;90.82;101613.69;3519531;40;102219;-41
2021/06/23 04:00:59;;;;;;;13.57;9.55;;;13.40;99.90;;;12.00;91.04;101621.88;3519444;40;103292;-40
2021/06/23 04:03:49;;;;;;;16.55;10.05;;;13.40;99.90;;;12.01;89.42;101616.22;3500498;40;102555;-40
2021/06/23 04:06:35;;;;;;;18.77;9.98;;;13.40;99.90;;;11.99;90.45;101609.25;3519469;40;102172;-40
2021/06/23 04:09:06;;;;;;;13.90;9.82;;;13.50;99.90;;;12.08;90.27;101614.38;3518976;40;104174;-40
2021/06/23 04:11:34;;;;;;;16.00;9.57;;;13.50;99.90;;;12.06;89.47;101618.38;3519306;40;103517;-40
2021/06/23 04:14:04;;;;;;;18.38;10.55;;;13.50;99.90;;;12.02;89.34;101608.88;3519145;40;103131;-41
2021/06/23 04:16:33;;;;;;;20.63;9.65;;;13.50;99.90;;;12.00;88.48;101614.50;3509894;40;102586;-40
2021/06/23 04:19:02;;;;;;;16.00;10.07;;;13.40;99.90;;;12.00;89.74;101617.25;3509842;40;102179;-40
2021/06/23 04:21:30;;;;;;;16.48;9.77;;;13.40;99.90;;;12.04;89.13;101620.47;3518934;40;103525;-40
2021/06/23 04:24:04;;;;;;;19.60;10.13;;;13.40;99.90;;;12.03;89.32;101625.06;3510115;40;104453;-41
2021/06/23 04:26:38;;;;;;;16.10;9.70;;;13.50;99.90;;;12.10;89.86;101611.44;3518279;40;102386;-40
2021/06/23 04:29:07;;;;;;;16.58;10.30;;;13.50;99.90;;;12.04;90.14;101607.63;3509837;40;102235;-40
2021/06/23 04:31:35;;;;;;;18.08;9.40;;;13.50;99.90;;;12.14;90.26;101620.09;3509902;40;102600;-40
2021/06/23 04:34:03;;;;;;;21.80;10.43;;;13.50;99.90;;;12.15;89.52;101617.13;3518093;40;102233;-40
2021/06/23 04:36:30;;;;;;;15.88;9.88;;;13.50;99.90;;;12.14;88.55;101622.81;3518906;40;104430;-40
2021/06/23 04:38:58;;;;;;;13.60;9.40;;;13.50;99.90;;;12.18;88.88;101624.09;3518983;40;102231;-41
2021/06/23 04:41:30;;;;;;;17.20;8.88;;;13.60;99.90;;;12.15;87.72;101619.88;3518840;40;103310;-40
2021/06/23 04:43:59;;;;;;;16.58;9.23;;;13.60;99.90;;;12.23;88.46;101627.91;3519033;40;104129;-40
2021/06/23 04:46:28;;;;;;;12.75;8.90;;;13.60;99.90;;;12.15;88.11;101614.41;3509784;40;102870;-40
2021/06/23 04:48:55;;;;;;;12.93;8.63;;;13.60;99.90;;;12.11;87.85;101615.84;3509843;40;103292;-40
2021/06/23 04:51:40;;;;;;;14.23;9.43;;;13.50;99.90;;;12.14;88.23;101620.91;3518548;40;102698;-41
2021/06/23 04:54:08;;;;;;;15.85;9.05;;;13.60;99.90;;;12.16;88.20;101615.25;3519042;40;102296;-40
2021/06/23 04:56:36;;;;;;;14.35;9.00;;;13.50;99.90;;;12.12;87.43;101622.19;3517766;40;102251;-40
2021/06/23 04:59:03;;;;;;;17.02;9.20;;;13.60;99.90;;;12.19;86.98;101620.31;3518086;40;105190;-41
2021/06/23 05:01:32;;;;;;;15.05;9.55;;;13.60;99.90;;;12.20;87.42;101617.38;3509636;40;103849;-41
2021/06/23 05:04:00;;;;;;;;;;;13.60;99.90;;;12.26;89.01;101620.34;3510580;40;103263;-40
2021/06/23 05:06:28;;;;;;;14.55;8.93;;;13.60;99.90;;;12.30;88.29;101616.97;3519470;40;102460;-40
2021/06/23 05:08:55;;;;;;;16.98;9.77;;;13.60;99.90;;;12.34;88.50;101626.50;3519147;40;102315;-41
2021/06/23 05:11:23;;;;;;;21.35;9.45;;;13.70;99.90;;;12.37;87.12;101617.00;3519117;40;102577;-40
2021/06/23 05:13:50;;;;;;;16.52;9.20;;;13.70;99.90;;;12.41;87.18;101622.94;3518542;40;102349;-40
2021/06/23 05:16:18;;;;;;;14.00;8.93;;;13.70;99.90;;;12.51;87.70;101624.22;3518952;40;102541;-40
2021/06/23 05:18:45;;;;;;;15.70;9.82;;;13.80;99.90;;;12.52;85.82;101620.44;3519184;40;102284;-42
2021/06/23 05:21:13;;;;;;;14.00;9.55;;;13.80;99.90;;;12.54;86.52;101622.97;3518435;40;102502;-40
2021/06/23 05:23:41;;;;;;;14.15;9.10;;;13.90;99.90;;;12.52;86.14;101625.91;3518460;40;103261;-40
2021/06/23 05:26:09;;;;;;;15.48;8.50;;;13.80;99.90;;;12.54;86.50;101633.06;3519267;40;103057;-41
2021/06/23 05:28:36;;;;;;;14.43;8.95;;;13.90;99.90;;;12.60;87.49;101637.72;3520173;40;102299;-42
2021/06/23 05:31:03;;;;;;;13.90;8.63;;;13.90;99.90;;;12.64;87.42;101628.91;3519991;39;102297;-40
2021/06/23 05:33:31;;;;;;;15.88;8.23;;;14.00;99.90;;;12.63;84.95;101631.81;3519978;40;102919;-40
2021/06/23 05:35:59;;;;;;;13.25;8.60;;;14.00;99.90;;;12.66;84.41;101625.94;3520227;40;102168;-41
2021/06/23 05:38:26;;;;;;;13.32;9.07;;;14.00;99.90;;;12.71;84.59;101625.31;3520345;40;102201;-40
2021/06/23 05:40:54;;;;;;;14.55;9.23;;;14.00;99.90;;;12.68;84.17;101623.84;3520283;40;102582;-40
2021/06/23 05:43:21;;;;;;;12.57;8.20;;;14.00;99.90;;;12.77;84.41;101624.50;3519916;40;103181;-40
2021/06/23 05:45:49;;;;;;;16.50;8.57;;;14.10;99.90;;;12.76;82.54;101622.81;3520010;40;102406;-41
2021/06/23 05:48:16;;;;;;;13.48;8.27;;;14.10;99.90;;;12.81;83.71;101628.50;3519807;40;103345;-41
2021/06/23 05:50:45;;;;;;;12.48;8.82;;;14.10;99.90;;;12.83;82.75;101633.78;3519937;40;102478;-40
2021/06/23 05:53:12;;;;;;;16.38;8.63;;;14.20;99.90;;;12.81;82.61;101633.97;3520163;40;102204;-40
2021/06/23 05:55:40;;;;;;;14.45;8.38;;;14.20;99.90;;;12.86;84.36;101636.09;3519717;40;102183;-40
2021/06/23 05:58:09;;;;;;;12.90;8.88;;;14.20;99.90;;;12.85;82.11;101634.41;3519733;40;103247;-40
2021/06/23 06:00:37;;;;;;;13.82;8.70;;;14.20;99.90;;;12.86;82.63;101641.56;3520620;40;102987;-40
2021/06/23 06:03:06;;;;;;;16.15;8.32;;;14.20;99.90;;;12.92;84.05;101641.59;3519877;40;102329;-40
2021/06/23 06:05:34;;;;;;;17.75;9.27;;;14.20;99.90;;;13.01;84.71;101644.97;3520182;40;102553;-40
2021/06/23 06:08:01;;;;;;;14.02;8.43;;;14.30;99.90;;;13.02;83.25;101638.44;3520039;40;103227;-40
2021/06/23 06:10:29;;;;;;;15.32;8.52;;;14.30;99.90;;;13.03;81.35;101650.22;3519903;39;102401;-40
2021/06/23 06:13:05;;;;;;;15.75;8.95;;;14.30;99.90;;;13.11;82.82;101654.66;3520230;40;103353;-41
2021/06/23 06:15:34;;;;;;;13.43;8.63;;;14.40;99.90;;;13.07;82.35;101641.41;3520073;40;102398;-41
2021/06/23 06:18:04;;;;;;;13.93;8.75;;;14.40;99.90;;;13.20;82.62;101659.75;3519733;40;102199;-41
2021/06/23 06:20:33;;;;;;;14.40;8.52;;;14.50;99.90;;;13.26;82.82;101654.47;3519671;40;102379;-40
2021/06/23 06:23:02;;;;;;;14.38;8.65;;;14.50;99.90;;;13.32;82.08;101650.88;3519780;40;104344;-40
2021/06/23 06:25:31;;;;;;;12.90;8.05;;;14.60;99.90;;;13.38;82.20;101650.88;3519945;40;102497;-40
2021/06/23 06:28:00;;;;;;;12.00;7.82;;;14.60;99.90;;;13.37;80.96;101662.91;3520128;40;103149;-41
2021/06/23 06:30:27;;;;;;;13.45;8.18;;;14.70;99.90;;;13.41;81.06;101667.97;3519871;40;102413;-40
2021/06/23 06:32:56;;;;;;;15.50;8.30;;;14.70;99.90;;;13.37;80.17;101670.28;3519734;40;102140;-38
2021/06/23 06:35:23;;;;;;;13.65;7.57;;;14.70;99.90;;;13.31;79.17;101671.97;3519871;40;102450;-40
2021/06/23 06:37:52;;;;;;;12.13;7.55;;;14.70;99.90;;;13.26;79.14;101673.66;3519736;40;102179;-40
2021/06/23 06:40:21;;;;;;;12.57;8.07;;;14.60;99.90;;;13.29;80.56;101685.03;3627855;22;102480;31
2021/06/23 06:42:50;;;;;;;12.95;8.07;;;14.60;99.90;;;13.31;82.07;101674.72;3508388;40;102374;-40
2021/06/23 06:45:18;;;;;;;16.02;8.15;;;14.60;99.90;;;13.38;82.56;101682.91;3509803;40;103365;-40
2021/06/23 06:47:46;;;;;;;14.23;8.05;;;14.70;99.90;;;13.31;80.53;101682.09;3510121;40;102372;-40
2021/06/23 06:50:14;;;;;;;13.63;8.07;;;14.60;99.90;;;13.33;80.99;101686.31;3509976;40;102242;-40
2021/06/23 06:52:42;;;;;;;14.73;7.53;;;14.60;99.90;;;13.40;81.02;101688.19;3510038;40;102339;-40
2021/06/23 06:55:11;;;;;;;15.90;7.65;;;14.70;99.90;;;13.42;80.30;101691.56;3509948;40;102398;-39
2021/06/23 06:57:38;;;;;;;12.98;7.85;;;14.70;99.90;;;13.38;79.00;101689.25;3509934;40;103343;-39
2021/06/23 07:00:06;;;;;;;12.55;7.38;;;14.70;99.90;;;13.39;80.18;101684.59;3510018;40;102589;-39
2021/06/23 07:02:34;;;;;;;13.45;7.88;;;14.70;99.90;;;13.48;79.90;101698.97;3509770;40;103449;-39
2021/06/23 07:05:01;;;;;;;15.35;7.60;;;14.80;99.90;;;13.47;80.19;101691.81;3509718;40;102580;-39
2021/06/23 07:07:29;;;;;;;12.30;8.05;;;14.80;99.90;;;13.46;80.20;101691.00;3509838;40;102444;-39
2021/06/23 07:09:56;;;;;;;15.35;7.85;;;14.80;99.90;;;13.51;80.65;101695.81;3510413;40;102825;-39
2021/06/23 07:12:24;;;;;;;17.17;9.23;;;14.80;99.90;;;13.60;82.12;101689.09;3510034;40;102349;-39
2021/06/23 07:14:51;;;;;;;13.00;7.53;;;14.80;99.90;;;13.61;79.90;101693.50;3509841;40;102587;-39
2021/06/23 07:17:19;;;;;;;16.48;8.35;;;14.90;99.90;;;13.69;81.73;101692.47;3509909;40;102394;-39
2021/06/23 07:19:46;;;;;;;11.48;8.07;;;14.90;99.90;;;13.85;81.61;101699.41;3510215;40;102547;-39
2021/06/23 07:22:14;;;;;;;14.25;8.10;;;15.10;99.90;;;13.88;79.84;101692.63;3510070;40;102297;-39
2021/06/23 07:24:42;;;;;;;13.32;8.05;;;15.10;99.90;;;13.83;78.80;101698.78;3509728;40;102600;-40
2021/06/23 07:27:09;;;;;;;18.30;8.23;;;15.10;99.90;;;13.91;80.49;101703.16;3509961;40;102341;-39
2021/06/23 07:29:37;;;;;;;15.52;8.55;;;15.20;99.90;;;13.97;80.68;101701.47;3509762;40;102385;-39
2021/06/23 07:32:08;;;;;;;14.73;8.57;;;15.20;99.90;;;13.99;79.64;101702.97;3509842;40;104085;-40
2021/06/23 07:37:15;;;;;;;17.20;8.32;;;15.30;99.90;;;14.05;78.11;101709.47;3500418;40;103757;-40
2021/06/23 07:39:42;;;;;;;12.93;8.18;;;15.30;99.90;;;14.14;79.06;101707.34;3500485;40;102284;-41
2021/06/23 07:42:12;;;;;;;12.48;8.10;;;15.40;99.90;;;14.10;76.85;101709.69;3500013;40;102405;-39
2021/06/23 07:45:14;;;;;;;11.35;7.88;;;15.30;99.90;;;14.19;78.46;101702.06;3500287;40;102221;-39
2021/06/23 07:47:36;;;;;;;12.90;8.18;;;15.40;99.90;;;14.33;79.50;101705.63;3497827;40;102146;-40
2021/06/23 07:50:06;;;;;;;15.15;8.82;;;15.50;99.90;;;14.42;78.41;101707.06;3500162;40;102259;-39
2021/06/23 07:52:44;;;;;;;16.80;8.02;;;15.60;99.90;;;14.53;77.92;101705.53;3500473;40;103333;-40
2021/06/23 08:09:31;;;;;;;14.13;8.07;;;16.10;99.90;;;14.88;74.64;101716.16;3499908;40;102304;-40
2021/06/23 08:12:39;;;;;;;13.52;7.38;;;16.10;99.90;;;14.71;73.14;101707.59;3499891;40;102220;-39
2021/06/23 08:14:54;;;;;;;13.88;7.40;;;16.00;99.90;;;14.68;73.92;101719.00;3498951;40;102590;-39
2021/06/23 08:17:22;;;;;;;10.98;7.18;;;16.00;99.90;;;14.71;74.94;101704.84;3499727;40;102512;-40
2021/06/23 08:19:49;;;;;;;12.02;6.60;;;16.00;99.90;;;14.70;73.51;101710.53;3499850;40;102331;-40
2021/06/23 08:22:17;;;;;;;14.20;7.68;;;15.90;99.90;;;14.74;74.14;101718.16;3500206;40;102389;-45
2021/06/23 08:24:44;;;;;;;14.95;7.22;;;16.00;99.90;;;14.77;74.54;101719.63;3499866;40;102218;-40
2021/06/23 08:27:12;;;;;;;14.15;7.60;;;16.00;99.90;;;14.85;75.35;101715.75;3499778;40;102449;-40
2021/06/23 08:29:39;;;;;;;11.65;7.57;;;16.00;99.90;;;14.95;75.51;101716.16;3499619;40;103282;-39
2021/06/23 08:32:07;;;;;;;13.52;7.63;;;16.10;99.90;;;15.02;75.11;101716.94;3499904;40;102388;-41
2021/06/23 08:34:35;;;;;;;14.25;7.15;;;16.20;99.90;;;14.98;73.00;101723.94;3499816;40;102255;-41
2021/06/23 08:37:03;;;;;;;14.95;7.72;;;16.20;99.90;;;14.98;73.84;101715.69;3499760;40;102708;-40
2021/06/23 08:39:30;;;;;;;;;;;16.20;99.90;;;15.04;73.31;101722.22;3500614;40;102179;-41
2021/06/23 08:41:58;;;;;;;14.07;7.63;;;16.20;99.90;;;15.07;74.08;101719.84;3500165;40;102020;-39
2021/06/23 08:44:25;;;;;;;13.75;7.28;;;16.30;99.90;;;15.06;73.67;101726.41;3499718;40;102300;-41
2021/06/23 08:46:53;;;;;;;9.27;6.65;;;16.30;99.90;;;15.06;73.35;101725.59;3499895;40;102866;-39
2021/06/23 08:49:28;;;;;;;17.15;8.00;;;16.30;99.90;;;15.01;72.57;101726.25;3499678;40;103002;-39
2021/06/23 08:51:57;;;;;;;12.90;7.35;;;16.30;99.90;;;14.94;72.76;101726.28;3499272;40;102565;-39
2021/06/23 08:54:28;;;;;;;14.77;7.38;;;16.20;99.90;;;14.90;71.95;101724.22;3499731;40;103758;-40
2021/06/23 08:56:56;;;;;;;11.10;8.13;;;16.20;99.90;;;14.96;73.57;101726.06;3499766;40;102416;-38
2021/06/23 08:59:24;;;;;;;15.27;8.07;;;16.20;99.90;;;15.06;73.23;101722.84;3499441;40;103804;-39
2021/06/23 09:01:51;;;;;;;15.48;7.43;;;16.30;99.90;;;15.16;72.82;101725.13;3500091;40;102591;-40
2021/06/23 09:04:20;;;;;;;10.05;6.97;;;16.40;99.90;;;15.17;73.27;101724.06;3500684;40;103360;-40
2021/06/23 09:06:51;;;;;;;12.52;7.07;;;16.40;99.90;;;15.31;72.63;101722.88;3501244;40;102510;-39
2021/06/23 09:09:31;;;;;;;12.38;7.60;;;16.50;99.90;;;15.50;72.22;101725.72;3500885;40;102788;-40
2021/06/23 09:12:07;;;;;;;13.98;7.13;;;16.60;99.90;;;15.51;70.22;101721.88;3500785;40;102431;-39
2021/06/23 09:14:38;;;;;;;13.93;7.57;;;16.70;99.90;;;15.54;71.72;101715.94;3500457;40;102441;-39
2021/06/23 09:17:11;;;;;;;11.15;7.55;;;16.70;99.90;;;15.57;71.50;101723.75;3500991;40;103584;-39
2021/06/23 09:19:59;;;;;;;14.80;7.60;;;16.80;99.90;;;15.61;72.02;101730.47;3500967;40;103274;-40
2021/06/23 09:22:47;;;;;;;13.68;7.47;;;16.80;99.90;;;15.66;72.17;101721.56;3500951;40;102120;-40
2021/06/23 09:25:17;;;;;;;11.57;7.20;;;16.90;99.90;;;15.76;72.77;101730.13;3500536;40;103288;-39
2021/06/23 09:27:56;;;;;;;11.95;8.00;;;16.90;99.90;;;15.81;70.44;101726.72;3500687;40;103500;-40
2021/06/23 09:30:38;;;;;;;14.07;8.27;;;16.90;99.90;;;15.95;73.58;101725.56;3501077;40;102391;-41
2021/06/23 09:33:18;;;;;;;11.85;7.28;;;17.00;99.90;;;15.99;69.21;101719.59;3500633;40;102238;-40
2021/06/23 09:36:27;;;;;;;15.18;7.85;;;17.10;99.90;;;15.92;69.96;101723.25;3501052;40;102143;-39
2021/06/23 09:39:04;;;;;;;14.63;6.97;;;17.10;99.90;;;15.92;68.22;101733.41;3500710;40;102403;-40
2021/06/23 09:41:35;;;;;;;11.07;6.68;;;17.10;99.90;;;15.95;70.07;101722.81;3500345;40;102324;-40
2021/06/23 09:44:11;;;;;;;13.68;8.10;;;17.20;99.90;;;15.98;68.92;101727.00;3500253;40;102412;-41
2021/06/23 09:46:47;;;;;;;14.27;7.65;;;17.20;99.90;;;15.99;70.86;101712.16;3501059;40;102235;-40
2021/06/23 09:49:27;;;;;;;15.63;8.07;;;17.20;99.90;;;16.04;68.47;101722.50;3500462;40;102382;-39
2021/06/23 09:51:57;;;;;;;12.30;7.57;;;17.20;99.90;;;16.12;69.47;101726.88;3501008;40;104147;-39
2021/06/23 09:54:31;;;;;;;17.08;7.93;;;17.30;99.90;;;16.20;70.50;101735.69;3500433;40;102304;-40
2021/06/23 09:57:14;;;;;;;13.77;8.13;;;17.30;99.90;;;16.22;69.61;101728.03;3500501;40;102266;-39
2021/06/23 09:59:47;;;;;;;17.42;8.80;;;17.40;99.90;;;16.28;68.07;101726.25;3500713;40;102894;-40
2021/06/23 10:02:30;;;;;;;16.73;8.15;;;17.40;99.90;;;16.40;68.74;101723.59;3500235;40;102322;-40
2021/06/23 10:05:29;;;;;;;11.63;7.68;;;17.50;99.90;;;16.41;67.82;101722.50;3500431;40;102147;-39
2021/06/23 10:07:56;;;;;;;11.73;8.47;;;17.60;99.90;;;16.54;69.46;101730.63;3499550;40;103273;-39
2021/06/23 10:10:43;;;;;;;13.48;9.18;;;17.60;99.90;;;16.60;69.44;101726.13;3500930;40;102884;-39
2021/06/23 10:13:11;;;;;;;14.60;8.82;;;17.70;99.90;;;16.69;69.76;101726.63;3500283;40;102527;-40
2021/06/23 10:15:39;;;;;;;16.80;8.82;;;17.80;99.90;;;16.68;67.01;101725.78;3500136;40;102410;-39
2021/06/23 10:18:07;;;;;;;13.25;8.13;;;17.80;99.90;;;16.62;67.12;101723.13;3500890;40;103227;-39
2021/06/23 10:20:34;;;;;;;17.40;8.57;;;17.80;99.90;;;16.84;70.30;101726.22;3500293;40;102409;-40
2021/06/23 10:23:07;;;;;;;13.63;8.32;;;17.90;99.90;;;16.92;68.47;101725.06;3500372;40;103194;-37
2021/06/23 10:25:35;;;;;;;12.00;8.23;;;18.00;99.90;;;17.09;67.15;101726.13;3500756;40;102335;-40
2021/06/23 10:28:05;;;;;;;13.05;8.07;;;18.10;99.90;;;17.17;65.79;101724.94;3500414;40;103813;-40
2021/06/23 10:30:33;;;;;;;13.77;7.88;;;18.20;99.90;;;17.24;65.17;101719.34;3500247;40;102377;-40
2021/06/23 10:33:00;;;;;;;13.18;7.70;;;18.30;99.90;;;17.35;66.64;101724.03;3500063;40;102320;-40
2021/06/23 10:35:28;;;;;;;14.20;8.30;;;18.40;99.90;;;17.37;65.62;101727.38;3500059;40;102369;-40
2021/06/23 10:37:56;;;;;;;11.95;7.47;;;18.50;99.90;;;17.45;63.87;101722.59;3500602;40;102247;-40